createdAt,value
2019-02-18T00:00:59.590Z,2.60
2019-02-18T00:02:12.822Z,3.95
2019-02-18T00:03:26.049Z,4.15
2019-02-18T00:04:39.277Z,2.10
2019-02-18T00:05:52.493Z,3.80
2019-02-18T00:07:14.172Z,4.67
2019-02-18T00:08:20.675Z,3.08
2019-02-18T00:09:33.890Z,4.47
2019-02-18T00:10:47.110Z,2.77
2019-02-18T00:12:00.369Z,5.90
2019-02-18T00:13:13.601Z,2.85
2019-02-18T00:14:27.085Z,4.10
2019-02-18T00:15:40.302Z,3.35
2019-02-18T00:16:53.530Z,3.02
2019-02-18T00:18:06.770Z,2.05
2019-02-18T00:19:19.993Z,3.92
2019-02-18T00:20:33.228Z,2.90
2019-02-18T00:21:46.436Z,3.90
2019-02-18T00:22:59.656Z,3.20
2019-02-18T00:24:12.887Z,2.70
2019-02-18T00:25:26.102Z,2.42
2019-02-18T00:26:39.322Z,3.58
2019-02-18T00:27:52.538Z,3.52
2019-02-18T00:29:05.776Z,3.05
2019-02-18T00:30:19.719Z,3.20
2019-02-18T00:31:32.942Z,4.55
2019-02-18T00:32:46.167Z,3.95
2019-02-18T00:33:59.405Z,2.30
2019-02-18T00:35:12.641Z,5.40
2019-02-18T00:36:25.865Z,3.58
2019-02-18T00:37:39.091Z,5.50
2019-02-18T00:38:52.314Z,3.08
2019-02-18T00:40:07.885Z,3.10
2019-02-18T00:41:21.104Z,3.98
2019-02-18T00:42:35.046Z,2.65
2019-02-18T00:43:48.274Z,5.28
2019-02-18T00:45:01.496Z,2.98
2019-02-18T00:46:14.721Z,4.08
2019-02-18T00:47:27.962Z,4.30
2019-02-18T00:48:41.233Z,2.67
2019-02-18T00:49:54.461Z,3.10
2019-02-18T00:51:07.699Z,2.72
2019-02-18T00:52:20.924Z,7.33
2019-02-18T00:53:34.141Z,6.10
2019-02-18T00:54:47.370Z,3.70
2019-02-18T00:56:00.615Z,4.87
2019-02-18T00:57:13.837Z,3.37
2019-02-18T00:58:27.053Z,5.75
2019-02-18T00:59:40.278Z,2.98
2019-02-18T01:00:55.138Z,4.62
2019-02-18T01:02:08.374Z,4.58
2019-02-18T01:03:21.626Z,3.35
2019-02-18T01:04:34.846Z,7.37
2019-02-18T01:05:48.060Z,3.58
2019-02-18T01:07:01.294Z,4.87
2019-02-18T01:08:14.517Z,3.05
2019-02-18T01:09:27.742Z,2.67
2019-02-18T01:10:40.970Z,6.03
2019-02-18T01:11:54.187Z,3.72
2019-02-18T01:13:07.430Z,3.70
2019-02-18T01:14:20.641Z,5.70
2019-02-18T01:15:33.878Z,4.33
2019-02-18T01:16:47.093Z,4.12
2019-02-18T01:18:00.318Z,4.42
2019-02-18T01:19:13.550Z,4.40
2019-02-18T01:20:26.774Z,2.80
2019-02-18T01:21:39.994Z,4.30
2019-02-18T01:22:53.214Z,8.75
2019-02-18T01:24:06.446Z,3.85
2019-02-18T01:25:19.661Z,6.37
2019-02-18T01:26:32.882Z,3.85
2019-02-18T01:27:46.098Z,3.67
2019-02-18T01:28:59.377Z,4.17
2019-02-18T01:30:16.195Z,3.05
2019-02-18T01:31:30.676Z,3.12
2019-02-18T01:32:43.906Z,4.87
2019-02-18T01:33:57.121Z,3.72
2019-02-18T01:35:10.363Z,2.60
2019-02-18T01:36:23.595Z,3.62
2019-02-18T01:37:45.366Z,3.20
2019-02-18T01:38:51.745Z,3.00
2019-02-18T01:40:07.809Z,3.08
2019-02-18T01:41:21.045Z,4.05
2019-02-18T01:42:34.261Z,2.27
2019-02-18T01:43:47.483Z,2.33
2019-02-18T01:45:00.701Z,3.17
2019-02-18T01:46:13.928Z,3.05
2019-02-18T01:47:27.161Z,4.85
2019-02-18T01:48:40.378Z,4.65
2019-02-18T01:49:53.601Z,3.35
2019-02-18T01:51:06.833Z,2.33
2019-02-18T01:52:20.050Z,3.47
2019-02-18T01:53:33.273Z,4.12
2019-02-18T01:54:46.501Z,4.22
2019-02-18T01:55:59.717Z,3.20
2019-02-18T01:57:12.938Z,3.47
2019-02-18T01:58:26.178Z,3.83
2019-02-18T01:59:39.409Z,4.50
2019-02-18T02:00:52.634Z,5.30
2019-02-18T02:02:06.106Z,3.80
2019-02-18T02:03:19.335Z,2.85
2019-02-18T02:04:32.610Z,6.97
2019-02-18T02:05:45.875Z,6.62
2019-02-18T02:06:59.110Z,6.85
2019-02-18T02:08:12.323Z,5.00
2019-02-18T02:09:25.559Z,4.83
2019-02-18T02:10:38.786Z,3.22
2019-02-18T02:11:52.077Z,5.78
2019-02-18T02:13:28.066Z,4.80
2019-02-18T02:14:41.306Z,5.85
2019-02-18T02:15:54.590Z,3.98
2019-02-18T02:17:07.821Z,4.37
2019-02-18T02:18:21.041Z,4.40
2019-02-18T02:19:34.263Z,3.72
2019-02-18T02:20:47.952Z,3.30
2019-02-18T02:22:01.180Z,3.40
2019-02-18T02:23:14.397Z,4.15
2019-02-18T02:24:27.626Z,3.52
2019-02-18T02:25:40.903Z,3.05
2019-02-18T02:26:54.149Z,4.50
2019-02-18T02:28:07.424Z,3.95
2019-02-18T02:29:20.690Z,4.03
2019-02-18T02:30:33.916Z,6.45
2019-02-18T02:31:47.141Z,2.80
2019-02-18T02:33:00.377Z,2.72
2019-02-18T02:34:13.611Z,3.92
2019-02-18T02:35:26.839Z,4.90
2019-02-18T02:36:40.309Z,4.22
2019-02-18T02:37:53.534Z,3.58
2019-02-18T02:39:06.842Z,3.05
2019-02-18T02:40:21.325Z,5.03
2019-02-18T02:41:34.548Z,4.75
2019-02-18T02:42:47.783Z,3.58
2019-02-18T02:44:01.242Z,3.62
2019-02-18T02:45:14.460Z,5.90
2019-02-18T02:46:27.673Z,4.15
2019-02-18T02:47:40.903Z,3.90
2019-02-18T02:48:54.133Z,3.33
2019-02-18T02:50:07.797Z,8.53
2019-02-18T02:51:21.769Z,2.67
2019-02-18T02:52:34.986Z,3.05
2019-02-18T02:53:48.218Z,4.37
2019-02-18T02:55:01.445Z,3.42
2019-02-18T02:56:14.666Z,4.53
2019-02-18T02:57:27.886Z,3.60
2019-02-18T02:58:41.124Z,3.37
2019-02-18T02:59:54.347Z,3.30
2019-02-18T03:01:07.572Z,3.27
2019-02-18T03:02:20.802Z,3.60
2019-02-18T03:03:34.030Z,3.40
2019-02-18T03:04:47.248Z,3.77
2019-02-18T03:06:00.470Z,3.30
2019-02-18T03:07:14.162Z,3.45
2019-02-18T03:08:27.384Z,3.27
2019-02-18T03:09:40.601Z,21.35
2019-02-18T03:10:53.841Z,13.05
2019-02-18T03:12:07.068Z,11.00
2019-02-18T03:13:20.295Z,13.28
2019-02-18T03:14:33.520Z,7.47
2019-02-18T03:15:46.749Z,13.08
2019-02-18T03:16:59.975Z,7.40
2019-02-18T03:18:13.208Z,4.42
2019-02-18T03:19:26.430Z,4.90
2019-02-18T03:20:39.653Z,6.03
2019-02-18T03:21:52.887Z,11.60
2019-02-18T03:23:06.121Z,3.92
2019-02-18T03:24:19.354Z,5.03
2019-02-18T03:25:32.854Z,9.65
2019-02-18T03:26:46.548Z,6.58
2019-02-18T03:28:29.326Z,3.77
2019-02-18T03:29:54.377Z,3.92
2019-02-18T03:31:13.524Z,10.75
2019-02-18T03:32:26.754Z,3.83
2019-02-18T03:33:48.772Z,3.25
2019-02-18T03:35:02.036Z,6.60
2019-02-18T03:36:15.258Z,4.37
2019-02-18T03:37:28.485Z,5.33
2019-02-18T03:38:41.718Z,5.72
2019-02-18T03:39:54.943Z,6.37
2019-02-18T03:41:08.160Z,3.98
2019-02-18T03:42:21.381Z,6.22
2019-02-18T03:43:34.611Z,6.58
2019-02-18T03:44:47.841Z,4.95
2019-02-18T03:46:01.075Z,4.22
2019-02-18T03:47:14.301Z,4.25
2019-02-18T03:48:27.520Z,3.85
2019-02-18T03:49:40.749Z,3.42
2019-02-18T03:50:53.997Z,6.92
2019-02-18T03:52:07.205Z,5.47
2019-02-18T03:53:20.422Z,5.22
2019-02-18T03:54:33.728Z,5.50
2019-02-18T03:55:47.026Z,6.35
2019-02-18T03:57:00.243Z,7.05
2019-02-18T03:58:13.457Z,4.40
2019-02-18T03:59:26.684Z,5.65
2019-02-18T04:00:39.901Z,5.22
2019-02-18T04:01:53.131Z,6.33
2019-02-18T04:03:06.351Z,8.53
2019-02-18T04:04:19.570Z,10.90
2019-02-18T04:05:32.794Z,5.85
2019-02-18T04:06:46.009Z,3.77
2019-02-18T04:07:59.254Z,7.87
2019-02-18T04:09:12.478Z,7.50
2019-02-18T04:10:25.702Z,5.53
2019-02-18T04:11:38.926Z,4.50
2019-02-18T04:12:52.146Z,4.97
2019-02-18T04:14:05.377Z,7.97
2019-02-18T04:15:18.675Z,6.03
2019-02-18T04:16:31.887Z,7.83
2019-02-18T04:17:45.106Z,6.67
2019-02-18T04:18:58.371Z,6.47
2019-02-18T04:20:11.584Z,6.50
2019-02-18T04:21:24.798Z,4.90
2019-02-18T04:22:38.029Z,6.87
2019-02-18T04:23:51.250Z,6.70
2019-02-18T04:25:05.741Z,5.35
2019-02-18T04:26:18.955Z,4.00
2019-02-18T04:27:32.166Z,6.35
2019-02-18T04:28:45.383Z,7.53
2019-02-18T04:29:58.602Z,5.80
2019-02-18T04:31:11.862Z,4.87
2019-02-18T04:32:25.092Z,5.28
2019-02-18T04:33:38.309Z,9.05
2019-02-18T04:34:51.553Z,9.60
2019-02-18T04:36:04.886Z,6.97
2019-02-18T04:37:18.085Z,6.60
2019-02-18T04:38:31.318Z,9.20
2019-02-18T04:39:44.547Z,13.13
2019-02-18T04:40:57.768Z,15.75
2019-02-18T04:42:11.019Z,11.55
2019-02-18T04:43:24.250Z,21.00
2019-02-18T04:44:37.479Z,13.40
2019-02-18T04:45:51.795Z,24.95
2019-02-18T04:47:05.047Z,22.82
2019-02-18T04:48:18.265Z,16.17
2019-02-18T04:49:31.482Z,21.60
2019-02-18T04:50:44.708Z,25.72
2019-02-18T04:51:57.925Z,19.80
2019-02-18T04:53:11.184Z,15.63
2019-02-18T04:54:24.407Z,12.90
2019-02-18T04:55:38.350Z,18.85
2019-02-18T04:56:51.663Z,18.60
2019-02-18T04:58:06.210Z,16.02
2019-02-18T04:59:19.599Z,12.25
2019-02-18T05:00:32.823Z,13.28
2019-02-18T05:01:46.052Z,11.95
2019-02-18T05:02:59.274Z,14.23
2019-02-18T05:04:14.189Z,25.82
2019-02-18T05:05:27.502Z,9.15
2019-02-18T05:06:40.746Z,11.68
2019-02-18T05:07:54.042Z,8.23
2019-02-18T05:09:07.265Z,13.93
2019-02-18T05:10:22.118Z,9.28
2019-02-18T05:11:35.398Z,8.25
2019-02-18T05:12:48.638Z,13.43
2019-02-18T05:14:01.853Z,9.85
2019-02-18T05:15:15.066Z,23.00
2019-02-18T05:16:28.290Z,9.13
2019-02-18T05:17:41.519Z,12.98
2019-02-18T05:18:54.753Z,9.43
2019-02-18T05:20:08.612Z,15.13
2019-02-18T05:21:21.841Z,10.45
2019-02-18T05:22:35.059Z,7.37
2019-02-18T05:23:48.298Z,12.20
2019-02-18T05:25:01.524Z,7.20
2019-02-18T05:26:14.771Z,8.73
2019-02-18T05:27:33.256Z,12.93
2019-02-18T05:28:42.987Z,9.58
2019-02-18T05:29:56.213Z,11.88
2019-02-18T05:31:09.451Z,11.68
2019-02-18T05:32:22.666Z,13.83
2019-02-18T05:33:35.890Z,7.35
2019-02-18T05:34:49.823Z,10.95
2019-02-18T05:36:03.031Z,13.45
2019-02-18T05:37:16.264Z,13.15
2019-02-18T05:38:29.495Z,12.28
2019-02-18T05:39:42.717Z,13.10
2019-02-18T05:40:55.950Z,16.57
2019-02-18T05:42:09.186Z,10.48
2019-02-18T05:43:22.411Z,12.75
2019-02-18T05:44:35.697Z,12.53
2019-02-18T05:45:49.394Z,14.90
2019-02-18T05:47:02.619Z,16.02
2019-02-18T05:48:16.074Z,16.80
2019-02-18T05:49:29.316Z,17.17
2019-02-18T05:50:42.540Z,19.12
2019-02-18T05:51:55.771Z,10.30
2019-02-18T05:53:08.993Z,20.05
2019-02-18T05:54:22.231Z,11.55
2019-02-18T05:55:35.448Z,14.63
2019-02-18T05:56:48.762Z,14.93
2019-02-18T05:58:02.002Z,22.30
2019-02-18T05:59:15.245Z,14.87
2019-02-18T06:00:28.544Z,18.92
2019-02-18T06:01:41.809Z,15.15
2019-02-18T06:02:55.060Z,22.73
2019-02-18T06:04:08.292Z,21.12
2019-02-18T06:05:21.522Z,25.17
2019-02-18T06:06:34.823Z,22.87
2019-02-18T06:07:48.049Z,30.35
2019-02-18T06:09:01.284Z,19.45
2019-02-18T06:10:16.993Z,17.42
2019-02-18T06:11:29.447Z,22.37
2019-02-18T06:12:42.670Z,17.67
2019-02-18T06:13:55.910Z,20.40
2019-02-18T06:15:09.816Z,14.05
2019-02-18T06:16:23.273Z,16.90
2019-02-18T06:17:36.499Z,24.43
2019-02-18T06:18:50.290Z,19.02
2019-02-18T06:20:04.155Z,14.68
2019-02-18T06:21:17.378Z,10.25
2019-02-18T06:22:30.666Z,18.30
2019-02-18T06:23:44.118Z,9.35
2019-02-18T06:24:57.357Z,16.23
2019-02-18T06:26:11.619Z,15.65
2019-02-18T06:27:24.914Z,15.78
2019-02-18T06:28:38.133Z,12.47
2019-02-18T06:29:51.372Z,7.97
2019-02-18T06:31:04.606Z,18.07
2019-02-18T06:32:17.837Z,15.43
2019-02-18T06:33:31.062Z,18.55
2019-02-18T06:34:44.294Z,19.07
2019-02-18T06:35:57.590Z,14.63
2019-02-18T06:37:10.818Z,16.37
2019-02-18T06:38:24.111Z,20.40
2019-02-18T06:39:41.402Z,16.25
2019-02-18T06:40:52.286Z,19.55
2019-02-18T06:42:05.512Z,16.25
2019-02-18T06:43:18.745Z,13.28
2019-02-18T06:44:36.318Z,13.45
2019-02-18T06:45:56.847Z,13.60
2019-02-18T06:47:10.449Z,22.00
2019-02-18T06:48:25.309Z,19.37
2019-02-18T06:49:38.549Z,16.75
2019-02-18T06:50:51.779Z,23.50
2019-02-18T06:52:05.003Z,16.23
2019-02-18T06:53:18.233Z,10.55
2019-02-18T06:54:31.466Z,25.68
2019-02-18T06:55:44.701Z,22.13
2019-02-18T06:57:08.495Z,20.02
2019-02-18T06:58:25.769Z,17.80
2019-02-18T06:59:40.633Z,34.85
2019-02-18T07:01:07.534Z,17.48
2019-02-18T07:02:28.099Z,16.52
2019-02-18T07:03:42.976Z,20.23
2019-02-18T07:05:00.541Z,22.37
2019-02-18T07:06:15.422Z,15.32
2019-02-18T07:07:33.254Z,14.07
2019-02-18T07:09:04.104Z,10.60
2019-02-18T07:10:25.273Z,13.55
2019-02-18T07:11:40.227Z,9.40
2019-02-18T07:12:53.442Z,19.10
2019-02-18T07:14:06.664Z,19.15
2019-02-18T07:15:20.372Z,15.38
2019-02-18T07:16:33.578Z,8.05
2019-02-18T07:17:46.809Z,10.08
2019-02-18T07:19:00.033Z,17.52
2019-02-18T07:20:13.265Z,12.00
2019-02-18T07:21:26.491Z,24.45
2019-02-18T07:22:39.719Z,20.17
2019-02-18T07:23:52.957Z,27.65
2019-02-18T07:25:08.177Z,20.23
2019-02-18T07:26:21.398Z,23.25
2019-02-18T07:27:34.628Z,14.05
2019-02-18T07:28:47.859Z,22.02
2019-02-18T07:30:01.086Z,14.83
2019-02-18T07:31:14.305Z,16.15
2019-02-18T07:32:27.538Z,18.77
2019-02-18T07:33:40.774Z,24.20
2019-02-18T07:34:54.025Z,13.38
2019-02-18T07:36:07.306Z,14.05
2019-02-18T07:37:20.530Z,18.48
2019-02-18T07:38:33.759Z,14.10
2019-02-18T07:39:46.996Z,11.30
2019-02-18T07:41:00.214Z,13.35
2019-02-18T07:42:13.434Z,8.28
2019-02-18T07:43:26.658Z,12.50
2019-02-18T07:44:39.901Z,15.48
2019-02-18T07:45:53.204Z,6.90
2019-02-18T07:47:06.426Z,11.20
2019-02-18T07:48:19.661Z,6.75
2019-02-18T07:49:32.886Z,12.82
2019-02-18T07:50:46.131Z,11.45
2019-02-18T07:51:59.342Z,9.00
2019-02-18T07:53:12.570Z,7.72
2019-02-18T07:54:25.792Z,9.65
2019-02-18T07:55:39.266Z,10.53
2019-02-18T07:56:52.494Z,7.37
2019-02-18T07:58:05.717Z,18.73
2019-02-18T07:59:18.950Z,17.98
2019-02-18T08:00:32.175Z,8.50
2019-02-18T08:01:45.394Z,8.85
2019-02-18T08:02:58.624Z,12.00
2019-02-18T08:04:11.867Z,9.80
2019-02-18T08:05:25.086Z,8.95
2019-02-18T08:06:38.322Z,18.67
2019-02-18T08:07:51.795Z,9.30
2019-02-18T08:09:06.234Z,11.35
2019-02-18T08:10:19.447Z,7.92
2019-02-18T08:11:32.671Z,6.30
2019-02-18T08:12:45.906Z,10.13
2019-02-18T08:13:59.137Z,13.08
2019-02-18T08:15:13.986Z,9.65
2019-02-18T08:16:27.219Z,9.13
2019-02-18T08:17:40.448Z,8.00
2019-02-18T08:18:55.430Z,11.57
2019-02-18T08:20:10.546Z,9.78
2019-02-18T08:21:23.773Z,12.35
2019-02-18T08:22:39.208Z,13.43
2019-02-18T08:23:59.582Z,12.53
2019-02-18T08:25:10.254Z,25.72
2019-02-18T08:26:25.129Z,22.45
2019-02-18T08:27:38.366Z,24.45
2019-02-18T08:28:51.581Z,20.68
2019-02-18T08:30:09.116Z,22.65
2019-02-18T08:31:22.350Z,23.02
2019-02-18T08:32:35.574Z,15.95
2019-02-18T08:33:48.806Z,19.45
2019-02-18T08:35:02.030Z,19.25
2019-02-18T08:36:18.165Z,44.70
2019-02-18T08:37:31.410Z,25.40
2019-02-18T08:38:45.113Z,35.15
2019-02-18T08:39:58.341Z,16.52
2019-02-18T08:41:11.560Z,22.42
2019-02-18T08:42:24.781Z,15.83
2019-02-18T08:43:38.032Z,11.20
2019-02-18T08:44:51.566Z,12.55
2019-02-18T08:46:04.793Z,11.30
2019-02-18T08:47:18.019Z,10.85
2019-02-18T08:48:31.249Z,6.22
2019-02-18T08:49:44.481Z,13.32
2019-02-18T08:50:59.813Z,9.23
2019-02-18T08:52:13.091Z,16.75
2019-02-18T08:53:26.318Z,4.87
2019-02-18T08:54:42.663Z,7.83
2019-02-18T08:55:55.893Z,10.38
2019-02-18T08:57:09.110Z,10.28
2019-02-18T08:58:22.365Z,11.90
2019-02-18T08:59:35.603Z,11.73
2019-02-18T09:00:48.823Z,12.50
2019-02-18T09:02:02.058Z,7.00
2019-02-18T09:03:15.274Z,95.28
2019-02-18T09:04:28.567Z,38.73
2019-02-18T09:05:41.792Z,38.53
2019-02-18T09:06:56.261Z,49.70
2019-02-18T09:08:09.482Z,65.32
2019-02-18T09:09:22.715Z,42.93
2019-02-18T09:10:36.185Z,29.48
2019-02-18T09:11:49.409Z,15.65
2019-02-18T09:13:02.666Z,17.17
2019-02-18T09:14:15.921Z,46.30
2019-02-18T09:15:29.143Z,45.33
2019-02-18T09:16:42.395Z,28.90
2019-02-18T09:17:55.610Z,15.18
2019-02-18T09:19:08.846Z,16.77
2019-02-18T09:20:22.069Z,16.40
2019-02-18T09:21:35.561Z,11.68
2019-02-18T09:22:53.077Z,9.65
2019-02-18T09:24:13.982Z,22.07
2019-02-18T09:25:31.546Z,16.17
2019-02-18T09:26:44.789Z,25.48
2019-02-18T09:27:58.018Z,53.05
2019-02-18T09:29:11.246Z,26.73
2019-02-18T09:30:26.130Z,14.47
2019-02-18T09:31:39.371Z,20.27
2019-02-18T09:32:52.600Z,46.23
2019-02-18T09:34:05.822Z,19.57
2019-02-18T09:35:19.045Z,8.90
2019-02-18T09:36:32.741Z,11.43
2019-02-18T09:37:45.980Z,13.28
2019-02-18T09:38:59.197Z,9.48
2019-02-18T09:40:12.431Z,13.53
2019-02-18T09:41:25.668Z,16.17
2019-02-18T09:42:38.895Z,11.40
2019-02-18T09:43:52.123Z,11.22
2019-02-18T09:45:08.477Z,13.30
2019-02-18T09:46:21.705Z,12.25
2019-02-18T09:47:34.946Z,6.62
2019-02-18T09:48:49.358Z,9.28
2019-02-18T09:50:02.679Z,82.55
2019-02-18T09:51:15.902Z,63.78
2019-02-18T09:52:29.121Z,6.62
2019-02-18T09:53:42.362Z,10.88
2019-02-18T09:54:55.596Z,5.12
2019-02-18T09:56:08.813Z,4.53
2019-02-18T09:57:22.072Z,8.38
2019-02-18T09:58:35.350Z,4.95
2019-02-18T09:59:48.810Z,6.67
2019-02-18T10:01:02.086Z,4.17
2019-02-18T10:02:15.334Z,6.55
2019-02-18T10:03:32.154Z,11.33
2019-02-18T10:04:44.232Z,10.50
2019-02-18T10:05:57.462Z,6.90
2019-02-18T10:07:10.685Z,5.78
2019-02-18T10:08:23.923Z,7.20
2019-02-18T10:09:37.158Z,8.55
2019-02-18T10:10:55.920Z,8.13
2019-02-18T10:12:05.334Z,2.05
2019-02-18T10:13:18.573Z,5.03
2019-02-18T10:14:32.265Z,3.87
2019-02-18T10:15:45.497Z,2.50
2019-02-18T10:16:58.963Z,7.00
2019-02-18T10:18:12.193Z,6.85
2019-02-18T10:19:25.417Z,21.93
2019-02-18T10:20:38.658Z,7.72
2019-02-18T10:21:51.890Z,7.25
2019-02-18T10:23:05.122Z,48.08
2019-02-18T10:24:18.346Z,28.77
2019-02-18T10:25:31.581Z,9.75
2019-02-18T10:26:44.810Z,14.65
2019-02-18T10:27:58.031Z,4.60
2019-02-18T10:29:11.249Z,6.90
2019-02-18T10:30:24.493Z,15.05
2019-02-18T10:31:37.729Z,7.22
2019-02-18T10:32:50.962Z,7.12
2019-02-18T10:34:04.207Z,11.57
2019-02-18T10:35:17.436Z,8.70
2019-02-18T10:36:30.734Z,9.50
2019-02-18T10:37:43.967Z,6.50
2019-02-18T10:38:57.189Z,5.15
2019-02-18T10:40:10.671Z,6.30
2019-02-18T10:41:23.898Z,8.43
2019-02-18T10:42:37.122Z,7.15
2019-02-18T10:43:50.354Z,5.10
2019-02-18T10:45:04.357Z,6.40
2019-02-18T10:46:17.596Z,7.55
2019-02-18T10:47:30.820Z,6.70
2019-02-18T10:48:44.046Z,6.60
2019-02-18T10:49:57.277Z,9.70
2019-02-18T10:51:10.517Z,11.10
2019-02-18T10:52:23.978Z,11.00
2019-02-18T10:53:37.200Z,10.10
2019-02-18T10:54:50.509Z,13.05
2019-02-18T10:56:03.840Z,14.50
2019-02-18T10:57:17.062Z,8.43
2019-02-18T10:58:30.300Z,4.12
2019-02-18T10:59:44.800Z,6.22
2019-02-18T11:00:58.316Z,13.58
2019-02-18T11:02:11.625Z,9.00
2019-02-18T11:03:24.852Z,9.13
2019-02-18T11:04:38.117Z,15.15
2019-02-18T11:05:52.070Z,12.30
2019-02-18T11:07:05.316Z,11.78
2019-02-18T11:08:19.577Z,8.43
2019-02-18T11:09:32.813Z,7.08
2019-02-18T11:10:46.037Z,5.10
2019-02-18T11:11:59.281Z,13.28
2019-02-18T11:13:12.521Z,20.15
2019-02-18T11:14:25.749Z,37.03
2019-02-18T11:15:39.209Z,6.42
2019-02-18T11:16:52.425Z,6.60
2019-02-18T11:18:05.672Z,6.25
2019-02-18T11:19:18.909Z,8.93
2019-02-18T11:20:32.133Z,6.45
2019-02-18T11:21:45.360Z,9.88
2019-02-18T11:22:58.589Z,7.72
2019-02-18T11:24:11.822Z,8.90
2019-02-18T11:25:25.045Z,7.45
2019-02-18T11:26:38.272Z,5.17
2019-02-18T11:27:51.493Z,4.95
2019-02-18T11:29:05.002Z,4.95
2019-02-18T11:30:18.894Z,8.25
2019-02-18T11:31:32.119Z,6.33
2019-02-18T11:32:45.345Z,6.50
2019-02-18T11:33:58.586Z,32.45
2019-02-18T11:35:11.814Z,36.75
2019-02-18T11:36:25.045Z,20.37
2019-02-18T11:37:38.280Z,14.10
2019-02-18T11:38:51.513Z,9.30
2019-02-18T11:40:08.006Z,6.12
2019-02-18T11:41:27.479Z,7.92
2019-02-18T11:42:37.456Z,7.53
2019-02-18T11:43:50.890Z,5.65
2019-02-18T11:45:05.941Z,9.35
2019-02-18T11:46:19.170Z,9.13
2019-02-18T11:47:32.446Z,5.67
2019-02-18T11:48:45.682Z,3.75
2019-02-18T11:49:58.915Z,7.22
2019-02-18T11:51:12.139Z,6.78
2019-02-18T11:52:25.364Z,7.50
2019-02-18T11:53:38.583Z,8.40
2019-02-18T11:54:51.831Z,5.45
2019-02-18T11:56:05.067Z,8.65
2019-02-18T11:57:18.289Z,4.80
2019-02-18T11:58:31.518Z,8.25
2019-02-18T11:59:44.745Z,5.17
2019-02-18T12:00:57.976Z,6.28
2019-02-18T12:02:11.490Z,10.72
2019-02-18T12:03:24.702Z,6.80
2019-02-18T12:04:37.926Z,6.95
2019-02-18T12:05:51.181Z,6.05
2019-02-18T12:07:04.401Z,6.28
2019-02-18T12:08:17.631Z,8.65
2019-02-18T12:09:30.857Z,9.60
2019-02-18T12:10:44.092Z,10.82
2019-02-18T12:11:57.316Z,6.42
2019-02-18T12:13:10.616Z,4.90
2019-02-18T12:14:23.836Z,5.15
2019-02-18T12:15:37.399Z,4.60
2019-02-18T12:16:50.656Z,6.80
2019-02-18T12:18:03.885Z,4.85
2019-02-18T12:19:17.098Z,7.05
2019-02-18T12:20:30.325Z,6.17
2019-02-18T12:21:43.554Z,6.30
2019-02-18T12:22:57.058Z,4.62
2019-02-18T12:24:10.696Z,8.85
2019-02-18T12:25:23.917Z,9.60
2019-02-18T12:26:37.170Z,5.15
2019-02-18T12:27:50.393Z,7.50
2019-02-18T12:29:03.618Z,8.35
2019-02-18T12:30:17.665Z,8.78
2019-02-18T12:31:31.194Z,7.37
2019-02-18T12:32:44.431Z,6.95
2019-02-18T12:33:57.747Z,9.40
2019-02-18T12:35:11.042Z,5.28
2019-02-18T12:36:24.282Z,7.67
2019-02-18T12:37:37.521Z,5.87
2019-02-18T12:38:50.748Z,13.00
2019-02-18T12:40:06.199Z,9.58
2019-02-18T12:41:19.697Z,5.83
2019-02-18T12:42:33.001Z,5.15
2019-02-18T12:43:46.287Z,6.58
2019-02-18T12:44:59.585Z,7.20
2019-02-18T12:46:15.700Z,10.93
2019-02-18T12:48:40.281Z,12.60
2019-02-18T12:49:55.138Z,9.28
2019-02-18T12:51:08.364Z,7.33
2019-02-18T12:52:21.605Z,10.13
2019-02-18T12:53:34.817Z,4.85
2019-02-18T12:54:48.141Z,7.83
2019-02-18T12:56:01.430Z,7.67
2019-02-18T12:57:14.656Z,6.83
2019-02-18T12:58:28.132Z,12.45
2019-02-18T12:59:41.449Z,11.30
2019-02-18T13:00:54.762Z,6.12
2019-02-18T13:02:08.365Z,12.00
2019-02-18T13:03:21.780Z,20.50
2019-02-18T13:04:35.101Z,12.85
2019-02-18T13:05:48.645Z,7.97
2019-02-18T13:07:01.943Z,15.65
2019-02-18T13:08:15.242Z,7.20
2019-02-18T13:09:28.613Z,13.72
2019-02-18T13:10:41.850Z,4.10
2019-02-18T13:11:58.959Z,14.65
2019-02-18T13:13:10.505Z,5.97
2019-02-18T13:14:23.817Z,9.60
2019-02-18T13:15:37.121Z,16.05
2019-02-18T13:16:50.349Z,12.20
2019-02-18T13:24:07.182Z,11.25
2019-02-18T13:25:20.699Z,11.48
2019-02-18T13:30:16.442Z,14.25
2019-02-18T13:31:29.754Z,12.07
2019-02-18T13:32:42.988Z,12.47
2019-02-18T13:33:56.226Z,10.90
2019-02-18T13:35:09.455Z,13.25
2019-02-18T13:36:22.747Z,10.08
2019-02-18T13:37:36.230Z,12.47
2019-02-18T13:38:49.464Z,13.98
2019-02-18T13:40:03.910Z,15.48
2019-02-18T13:41:17.710Z,7.50
2019-02-18T13:42:30.939Z,11.65
2019-02-18T13:43:44.548Z,10.38
2019-02-18T13:44:57.949Z,9.43
2019-02-18T13:46:11.170Z,9.68
2019-02-18T13:47:24.386Z,6.35
2019-02-18T13:48:37.614Z,9.38
2019-02-18T13:49:51.092Z,9.00
2019-02-18T13:51:04.322Z,9.05
2019-02-18T13:52:17.546Z,8.68
2019-02-18T13:53:30.789Z,7.90
2019-02-18T13:54:44.035Z,10.85
2019-02-18T13:55:57.250Z,6.50
2019-02-18T13:57:10.545Z,7.47
2019-02-18T13:58:23.776Z,10.48
2019-02-18T13:59:37.089Z,6.12
2019-02-18T14:00:50.878Z,10.32
2019-02-18T14:02:04.096Z,9.18
2019-02-18T14:03:17.608Z,10.25
2019-02-18T14:04:30.905Z,8.43
2019-02-18T14:05:44.166Z,11.28
2019-02-18T14:06:57.393Z,11.05
2019-02-18T14:08:10.617Z,14.50
2019-02-18T14:09:23.846Z,9.85
2019-02-18T14:10:37.082Z,13.32
2019-02-18T14:11:50.309Z,11.30
2019-02-18T14:13:03.530Z,8.63
2019-02-18T14:14:16.753Z,12.13
2019-02-18T14:15:29.986Z,11.20
2019-02-18T14:16:43.221Z,6.75
2019-02-18T14:17:56.443Z,10.70
2019-02-18T14:19:10.377Z,7.03
2019-02-18T14:20:23.594Z,7.28
2019-02-18T14:21:36.823Z,12.03
2019-02-18T14:22:50.446Z,12.75
2019-02-18T14:24:03.670Z,13.28
2019-02-18T14:25:17.611Z,10.68
2019-02-18T15:25:54.006Z,5.28
2019-02-18T15:27:10.506Z,8.43
2019-02-18T15:28:23.742Z,8.43
2019-02-18T15:29:36.965Z,8.95
2019-02-18T15:30:50.199Z,8.78
2019-02-18T15:32:03.435Z,4.28
2019-02-18T15:33:16.672Z,6.62
2019-02-18T15:34:29.916Z,5.85
2019-02-18T15:35:43.141Z,6.17
2019-02-18T15:36:56.378Z,5.40
2019-02-18T15:38:09.606Z,13.00
2019-02-18T15:39:22.837Z,5.53
2019-02-18T15:40:36.138Z,10.88
2019-02-18T15:41:49.370Z,6.15
2019-02-18T15:43:02.854Z,5.58
2019-02-18T15:44:16.083Z,7.62
2019-02-18T15:45:29.581Z,9.28
2019-02-18T15:46:42.822Z,13.75
2019-02-18T15:48:01.508Z,5.20
2019-02-18T15:49:11.782Z,5.80
2019-02-18T15:50:25.012Z,8.98
2019-02-18T15:51:38.255Z,5.33
2019-02-18T15:52:51.722Z,5.10
2019-02-18T15:54:04.937Z,7.83
2019-02-18T15:55:18.167Z,4.30
2019-02-18T15:56:31.399Z,4.72
2019-02-18T15:57:44.718Z,5.15
2019-02-18T15:58:57.937Z,5.33
2019-02-18T16:00:19.995Z,6.95
2019-02-18T16:01:33.496Z,3.33
2019-02-18T16:02:46.726Z,4.60
2019-02-18T16:03:59.959Z,5.45
2019-02-18T16:05:13.180Z,7.20
2019-02-18T16:06:26.410Z,9.83
2019-02-18T16:07:39.652Z,5.45
2019-02-18T16:08:52.888Z,8.48
2019-02-18T16:10:08.150Z,5.47
2019-02-18T16:11:21.373Z,8.28
2019-02-18T16:12:34.613Z,7.45
2019-02-18T16:13:47.845Z,6.12
2019-02-18T16:15:01.084Z,8.45
2019-02-18T16:16:14.314Z,6.30
2019-02-18T16:17:27.630Z,4.97
2019-02-18T16:18:40.921Z,9.78
2019-02-18T16:19:54.425Z,9.28
2019-02-18T16:21:07.930Z,4.70
2019-02-18T16:22:21.157Z,6.65
2019-02-18T16:23:34.396Z,9.10
2019-02-18T16:24:47.628Z,9.23
2019-02-18T16:26:00.849Z,6.42
2019-02-18T16:27:14.822Z,9.35
2019-02-18T16:28:28.059Z,5.03
2019-02-18T16:29:41.288Z,8.80
2019-02-18T16:30:54.590Z,6.92
2019-02-18T16:32:07.818Z,7.62
2019-02-18T16:33:21.055Z,5.92
2019-02-18T16:34:34.285Z,7.33
2019-02-18T16:35:47.794Z,7.90
2019-02-18T16:37:01.485Z,5.40
2019-02-18T16:38:14.714Z,5.45
2019-02-18T16:39:27.947Z,5.55
2019-02-18T16:40:41.550Z,5.42
2019-02-18T16:41:54.783Z,7.80
2019-02-18T16:43:08.086Z,6.10
2019-02-18T16:44:21.324Z,5.47
2019-02-18T16:45:34.556Z,7.25
2019-02-18T16:46:48.157Z,8.48
2019-02-18T16:48:01.392Z,5.83
2019-02-18T16:49:14.629Z,9.75
2019-02-18T16:50:27.876Z,11.63
2019-02-18T16:51:41.161Z,11.22
2019-02-18T16:52:54.388Z,6.78
2019-02-18T16:54:07.861Z,11.30
2019-02-18T16:55:21.098Z,8.30
2019-02-18T16:56:35.455Z,9.08
2019-02-18T16:57:48.966Z,8.18
2019-02-18T16:59:02.211Z,12.18
2019-02-18T17:00:19.115Z,10.58
2019-02-18T17:01:32.409Z,6.80
2019-02-18T17:02:45.641Z,10.63
2019-02-18T17:03:58.879Z,8.08
2019-02-18T17:05:12.110Z,17.02
2019-02-18T17:06:25.333Z,7.60
2019-02-18T17:07:38.565Z,9.30
2019-02-18T17:08:51.811Z,10.63
2019-02-18T17:10:07.153Z,11.35
2019-02-18T17:11:20.426Z,6.28
2019-02-18T17:12:33.705Z,8.70
2019-02-18T17:13:47.314Z,11.50
2019-02-18T17:15:00.824Z,10.55
2019-02-18T17:16:14.045Z,9.23
2019-02-18T17:17:27.274Z,12.40
2019-02-18T17:18:40.506Z,7.40